Honeoye Falls, New York
Current Conditions -  °F | °C
As of 6:57 PM on Friday 31 Oct 2014 (Local Time) from KROC Reporting Station
Light Rain Light Rain  
Wind Chill: 43°   Ceiling: 2900
Heat Index: 46°   Visibility: 10mi
Dew Point: 40°   Wind: 6mph
Humidity: 79%   Direction: 70°ENE
Pressure: 29.95"   Gusts: NA
Location:  42.95°N, 77.59°W
Report Text: KROC 312257Z 07005KT 10SM -RA BKN029 BKN040 OVC048 08/04 A2995 RMK AO2 P0000 T00780044
Loading
Personal Weather Stations






























Interactive Weather Map New forecast layout! Learn more

10-Day Weather Forecast

Advertisements
Track Severe Weather on mobile